Time;durP1;ratioP1;P1;durP2;ratioP2;P2;SDS_P1;SDS_P2;PMS_P1;PMS_P2;Temp;Humidity;BMP_temperature;BMP_pressure;BME280_temperature;BME280_humidity;BME280_pressure;Samples;Min_cycle;Max_cycle;Signal;HPM_P1;HPM_P2
2022/05/05 00:01:32;;;;;;;18.98;13.10;;;;;;;9.77;100.00;98894.75;5008658;28;20026;-64
2022/05/05 00:03:58;;;;;;;19.73;12.35;;;;;;;9.87;100.00;98903.34;5008959;28;20030;-64
2022/05/05 00:06:23;;;;;;;18.23;12.30;;;;;;;9.93;100.00;98907.13;5009718;28;20078;-65
2022/05/05 00:08:48;;;;;;;17.98;12.60;;;;;;;9.86;100.00;98902.50;5012912;28;20336;-65
2022/05/05 00:16:41;;;;;;;17.92;12.18;;;;;;;9.88;100.00;98905.03;5021317;28;20033;-65
2022/05/05 00:19:06;;;;;;;20.40;13.23;;;;;;;9.73;100.00;98902.41;5023645;28;20391;-65
2022/05/05 00:21:32;;;;;;;19.27;12.70;;;;;;;9.76;100.00;98907.41;5013039;28;20160;-64
2022/05/05 00:23:57;;;;;;;22.95;13.10;;;;;;;9.59;100.00;98889.84;5021861;28;20423;-64
2022/05/05 00:26:22;;;;;;;21.63;13.95;;;;;;;9.69;100.00;98914.63;5010735;28;20119;-64
2022/05/05 00:28:47;;;;;;;21.60;13.77;;;;;;;9.61;100.00;98903.97;5013333;28;20037;-65
2022/05/05 00:31:13;;;;;;;21.30;13.52;;;;;;;9.58;100.00;98915.16;5011328;28;20028;-64
2022/05/05 00:33:38;;;;;;;20.42;13.65;;;;;;;9.65;100.00;98916.06;5011661;28;20434;-65
2022/05/05 00:36:04;;;;;;;18.83;12.43;;;;;;;9.55;100.00;98919.09;5022959;28;20022;-65
2022/05/05 00:38:29;;;;;;;23.45;13.98;;;;;;;9.56;100.00;98903.72;5013728;28;20022;-65
2022/05/05 00:40:55;;;;;;;18.40;13.15;;;;;;;9.61;100.00;98901.25;5012196;28;20068;-65
2022/05/05 00:43:20;;;;;;;20.05;13.05;;;;;;;9.60;100.00;98907.69;5013237;28;20036;-65
2022/05/05 00:45:45;;;;;;;20.67;12.80;;;;;;;9.62;100.00;98901.06;5022218;28;20079;-65
2022/05/05 00:48:12;;;;;;;18.85;12.93;;;;;;;9.62;100.00;98894.84;5009733;28;20079;-65
2022/05/05 00:50:38;;;;;;;20.80;13.27;;;;;;;9.47;100.00;98857.09;5011759;28;20535;-68
2022/05/05 00:53:04;;;;;;;21.70;13.43;;;;;;;9.61;100.00;98890.44;5027218;28;20121;-65
2022/05/05 00:55:37;;;;;;;22.08;13.90;;;;;;;9.55;100.00;98883.13;5014118;28;20026;-66
2022/05/05 00:58:03;;;;;;;20.20;13.90;;;;;;;9.66;100.00;98901.50;5008186;28;20022;-65
2022/05/05 01:00:29;;;;;;;20.77;14.57;;;;;;;9.59;100.00;98900.66;5015322;28;20029;-66
2022/05/05 01:02:57;;;;;;;23.45;15.55;;;;;;;9.68;100.00;98898.63;5016483;28;20029;-67
2022/05/05 01:05:24;;;;;;;21.83;14.05;;;;;;;9.69;100.00;98898.41;5006741;28;20036;-65
2022/05/05 01:07:49;;;;;;;22.27;14.23;;;;;;;9.81;100.00;98899.56;5019138;28;20087;-66
2022/05/05 01:10:15;;;;;;;23.13;14.52;;;;;;;9.66;100.00;98896.94;5011454;28;20021;-67
2022/05/05 01:12:40;;;;;;;21.48;14.35;;;;;;;9.60;100.00;98880.69;5012228;28;20022;-65
2022/05/05 01:15:06;;;;;;;24.42;15.35;;;;;;;9.73;100.00;98899.72;5011517;28;20479;-66
2022/05/05 01:17:32;;;;;;;26.95;17.92;;;;;;;9.74;100.00;98900.53;5018280;28;20530;-66
2022/05/05 01:19:57;;;;;;;27.02;16.35;;;;;;;9.78;100.00;98893.72;5012898;28;20036;-66
2022/05/05 01:22:25;;;;;;;29.27;16.73;;;;;;;9.77;100.00;98892.91;5026757;28;20112;-65
2022/05/05 01:30:19;;;;;;;20.17;13.85;;;;;;;9.79;100.00;98901.63;5013503;28;20037;-65
2022/05/05 01:32:44;;;;;;;23.08;14.57;;;;;;;9.62;100.00;98892.16;5010175;28;20030;-66
2022/05/05 01:35:09;;;;;;;18.10;12.98;;;;;;;9.62;100.00;98900.25;5018073;28;20371;-65
2022/05/05 01:37:35;;;;;;;20.77;14.10;;;;;;;9.29;100.00;98862.13;5007099;28;20026;-66
2022/05/05 01:40:00;;;;;;;21.00;14.60;;;;;;;9.52;100.00;98895.16;5011263;28;20117;-66
2022/05/05 01:42:25;;;;;;;25.48;16.08;;;;;;;9.52;100.00;98907.84;5017985;28;20112;-65
2022/05/05 01:44:51;;;;;;;22.33;14.25;;;;;;;9.37;100.00;98868.22;5023011;28;20079;-65
2022/05/05 01:47:16;;;;;;;27.30;17.05;;;;;;;9.61;100.00;98909.38;5026467;28;20114;-66
2022/05/05 01:49:45;;;;;;;26.75;16.20;;;;;;;9.52;100.00;98897.03;5004601;28;20402;-65
2022/05/05 01:52:10;;;;;;;22.63;14.97;;;;;;;9.48;100.00;98893.88;5014546;28;20022;-65
2022/05/05 01:54:37;;;;;;;22.90;14.15;;;;;;;9.58;100.00;98909.75;5009663;28;20084;-64
2022/05/05 01:57:03;;;;;;;22.58;15.30;;;;;;;9.61;100.00;98917.47;5013516;28;20120;-65
2022/05/05 01:59:28;;;;;;;22.60;15.02;;;;;;;9.51;100.00;98908.84;5018195;28;20033;-65
2022/05/05 02:01:53;;;;;;;20.48;13.98;;;;;;;9.49;100.00;98916.34;5024252;28;20025;-65
2022/05/05 02:04:19;;;;;;;23.33;14.27;;;;;;;9.42;100.00;98911.69;5018630;28;20022;-65
2022/05/05 02:06:44;;;;;;;27.75;15.35;;;;;;;9.40;100.00;98919.13;5016273;28;20528;-65
2022/05/05 02:09:09;;;;;;;26.30;15.55;;;;;;;9.40;100.00;98916.44;5007003;28;20033;-65
2022/05/05 02:11:37;;;;;;;22.83;14.85;;;;;;;9.33;100.00;98912.88;5026394;28;20022;-64
2022/05/05 02:14:03;;;;;;;25.58;14.60;;;;;;;9.29;100.00;98919.66;5012655;28;20026;-64
2022/05/05 02:16:29;;;;;;;26.67;15.75;;;;;;;9.12;100.00;98905.59;5007804;28;20022;-65
2022/05/05 02:18:54;;;;;;;29.48;15.45;;;;;;;9.21;100.00;98927.88;5020273;28;20392;-65
2022/05/05 02:21:19;;;;;;;23.80;14.82;;;;;;;9.16;100.00;98924.94;5011550;28;20391;-65
2022/05/05 02:23:44;;;;;;;25.15;15.95;;;;;;;9.11;100.00;98924.66;5011744;28;20084;-65
2022/05/05 02:26:10;;;;;;;25.25;15.75;;;;;;;9.11;100.00;98924.66;5005715;28;20570;-65
2022/05/05 02:28:35;;;;;;;30.20;17.02;;;;;;;9.07;100.00;98921.53;5023292;28;20103;-64
2022/05/05 02:31:00;;;;;;;26.95;17.10;;;;;;;8.98;100.00;98920.78;5015653;28;20490;-65
2022/05/05 02:33:26;;;;;;;30.42;18.27;;;;;;;9.20;100.00;98934.31;5023963;28;20031;-65
2022/05/05 02:38:42;;;;;;;32.47;18.58;;;;;;;9.38;100.00;98925.78;5017390;28;20483;-65
2022/05/05 02:38:42;;;;;;;27.55;17.52;;;;;;;9.22;100.00;98921.44;5016427;28;20036;-65
2022/05/05 02:41:07;;;;;;;26.60;16.17;;;;;;;9.28;100.00;98928.81;5023936;28;20475;-64
2022/05/05 02:43:33;;;;;;;25.25;17.38;;;;;;;9.26;100.00;98928.16;5020797;28;20105;-65
2022/05/05 02:45:58;;;;;;;26.05;15.95;;;;;;;9.34;100.00;98919.91;5010786;28;20049;-65
2022/05/05 02:48:23;;;;;;;25.63;17.42;;;;;;;9.24;100.00;98919.41;5015514;28;20032;-65
2022/05/05 02:50:48;;;;;;;25.90;15.75;;;;;;;9.16;100.00;98924.94;5023867;28;20395;-65
2022/05/05 02:55:58;;;;;;;22.38;14.88;;;;;;;8.78;100.00;98909.78;5017517;28;20052;-64
2022/05/05 02:58:23;;;;;;;24.20;15.18;;;;;;;8.83;100.00;98932.63;5010023;28;20499;-65
2022/05/05 03:00:49;;;;;;;24.73;15.32;;;;;;;8.62;100.00;98896.50;5007041;28;20034;-64
2022/05/05 03:03:14;;;;;;;20.45;13.30;;;;;;;8.72;100.00;98928.56;5009505;28;20025;-64
2022/05/05 03:05:39;;;;;;;21.85;13.93;;;;;;;8.65;100.00;98925.78;5010892;28;20022;-65
2022/05/05 03:08:05;;;;;;;25.85;14.65;;;;;;;8.61;100.00;98918.25;5016909;28;20479;-65
2022/05/05 03:10:30;;;;;;;23.60;14.82;;;;;;;8.44;100.00;98891.50;5011503;28;20044;-66
2022/05/05 03:12:55;;;;;;;24.65;15.18;;;;;;;8.64;100.00;98924.09;5009811;28;20052;-65
2022/05/05 03:15:21;;;;;;;25.00;15.30;;;;;;;8.53;100.00;98925.41;5009048;28;20117;-65
2022/05/05 03:17:48;;;;;;;23.00;14.95;;;;;;;8.53;100.00;98933.50;5011478;28;20026;-65
2022/05/05 03:20:13;;;;;;;26.02;16.40;;;;;;;8.50;100.00;98927.66;5012227;28;20464;-65
2022/05/05 03:22:38;;;;;;;27.95;16.85;;;;;;;8.49;100.00;98926.84;5020804;28;20022;-65
2022/05/05 03:25:04;;;;;;;28.88;17.52;;;;;;;8.50;100.00;98931.19;5005032;28;20030;-65
2022/05/05 03:27:29;;;;;;;31.25;18.17;;;;;;;8.40;100.00;98921.72;5016029;28;20044;-71
2022/05/05 03:29:55;;;;;;;29.77;18.27;;;;;;;8.65;100.00;98927.66;5004615;28;20072;-71
2022/05/05 03:32:20;;;;;;;31.17;17.35;;;;;;;8.64;100.00;98913.31;5025851;28;20022;-70
2022/05/05 03:34:45;;;;;;;27.08;17.35;;;;;;;8.67;100.00;98934.53;5011615;28;20180;-70
2022/05/05 03:37:10;;;;;;;37.88;19.75;;;;;;;8.63;100.00;98929.69;5012984;28;20047;-69
2022/05/05 03:39:36;;;;;;;27.92;16.58;;;;;;;8.69;100.00;98935.16;5011780;28;20046;-70
2022/05/05 03:42:02;;;;;;;29.60;16.02;;;;;;;8.48;100.00;98910.84;5013323;28;20037;-70
2022/05/05 03:44:27;;;;;;;28.08;16.30;;;;;;;8.53;100.00;98901.16;5012066;28;20084;-71
2022/05/05 03:46:53;;;;;;;28.45;16.13;;;;;;;8.64;100.00;98932.19;5013197;28;20026;-70
2022/05/05 03:49:18;;;;;;;25.98;15.00;;;;;;;8.60;100.00;98938.16;5014528;28;20028;-66
2022/05/05 03:51:44;;;;;;;24.75;15.77;;;;;;;8.60;100.00;98935.47;5015098;28;20036;-69
2022/05/05 03:54:10;;;;;;;23.75;15.27;;;;;;;8.59;100.00;98920.31;5010308;28;20030;-69
2022/05/05 03:56:35;;;;;;;28.02;16.58;;;;;;;8.71;100.00;98943.09;5010323;28;20044;-68
2022/05/05 03:59:01;;;;;;;29.77;17.27;;;;;;;8.59;100.00;98917.59;5034251;28;20022;-72
2022/05/05 04:01:27;;;;;;;24.08;15.63;;;;;;;8.75;100.00;98947.91;5018567;28;20105;-68
2022/05/05 04:03:52;;;;;;;26.95;15.80;;;;;;;8.91;100.00;98946.03;5008550;28;20113;-66
2022/05/05 04:06:19;;;;;;;26.90;15.57;;;;;;;8.80;100.00;98950.03;5014538;28;20030;-69
2022/05/05 04:08:45;;;;;;;21.92;14.57;;;;;;;8.89;100.00;98948.91;5015163;28;20026;-70
2022/05/05 04:11:10;;;;;;;27.10;14.63;;;;;;;8.89;100.00;98938.13;5009612;28;20030;-67
2022/05/05 04:13:36;;;;;;;24.05;14.68;;;;;;;9.06;100.00;98964.88;5016657;28;20124;-70
2022/05/05 04:16:03;;;;;;;24.65;14.93;;;;;;;9.22;100.00;98961.94;5018130;28;20041;-66
2022/05/05 04:18:28;;;;;;;23.98;14.05;;;;;;;9.25;100.00;98963.44;5011122;28;20049;-67
2022/05/05 04:20:54;;;;;;;18.52;13.65;;;;;;;8.99;100.00;98925.16;5025351;28;20439;-66
2022/05/05 04:23:20;;;;;;;21.30;14.13;;;;;;;9.25;100.00;98971.53;5024056;28;20033;-66
2022/05/05 04:25:47;;;;;;;22.58;14.48;;;;;;;9.09;100.00;98930.25;5015344;28;20030;-70
2022/05/05 04:28:13;;;;;;;22.50;14.25;;;;;;;9.44;100.00;98968.22;5014637;28;20175;-65
2022/05/05 04:30:39;;;;;;;19.27;13.65;;;;;;;9.52;100.00;98967.25;5020168;28;20478;-70
2022/05/05 04:33:07;;;;;;;18.67;13.77;;;;;;;9.61;100.00;98968.78;5014656;28;20030;-69
2022/05/05 04:35:34;;;;;;;15.52;11.77;;;;;;;9.66;100.00;98969.88;5010949;28;20487;-72
2022/05/05 04:37:59;;;;;;;20.60;13.50;;;;;;;9.81;100.00;98967.13;5013810;28;20084;-70
2022/05/05 04:40:24;;;;;;;21.80;13.90;;;;;;;9.95;100.00;98962.66;5011535;28;20025;-70
2022/05/05 04:42:50;;;;;;;18.60;12.73;;;;;;;10.03;100.00;98948.16;5036571;28;20026;-67
2022/05/05 04:45:15;;;;;;;19.50;13.57;;;;;;;10.26;100.00;98975.78;5022768;28;20488;-65
2022/05/05 04:47:40;;;;;;;20.55;13.23;;;;;;;10.30;100.00;98969.00;5005409;28;20486;-67
2022/05/05 04:50:06;;;;;;;19.02;12.02;;;;;;;10.46;100.00;98973.25;5020775;28;20038;-72
2022/05/05 04:52:32;;;;;;;20.88;12.45;;;;;;;10.68;100.00;98976.69;5028656;28;20017;-67
2022/05/05 04:54:58;;;;;;;13.55;10.48;;;;;;;10.35;100.00;98989.19;5011258;28;20383;-68
2022/05/05 04:57:23;;;;;;;15.73;11.85;;;;;;;10.25;100.00;98981.41;5011123;28;20522;-67
2022/05/05 04:59:49;;;;;;;22.63;12.00;;;;;;;10.25;100.00;98976.81;5013071;28;20108;-68
2022/05/05 05:02:14;;;;;;;17.33;11.65;;;;;;;10.46;100.00;98996.78;5010763;28;20116;-68
2022/05/05 05:04:40;;;;;;;16.00;11.98;;;;;;;10.51;100.00;98986.19;5010428;28;20046;-67
2022/05/05 05:07:05;;;;;;;15.23;10.98;;;;;;;10.61;100.00;98992.09;5019219;28;20030;-67
2022/05/05 05:09:30;;;;;;;16.08;11.20;;;;;;;10.54;100.00;98980.38;5011676;28;20030;-68
2022/05/05 05:11:56;;;;;;;17.45;12.15;;;;;;;10.65;100.00;98976.28;5017294;28;20052;-68
2022/05/05 05:14:21;;;;;;;16.40;10.90;;;;;;;10.88;100.00;98994.94;5018969;28;20029;-69
2022/05/05 05:16:47;;;;;;;16.27;10.05;;;;;;;10.91;100.00;98981.00;5024458;28;20026;-73
2022/05/05 05:19:12;;;;;;;14.38;10.23;;;;;;;11.12;100.00;98999.00;5013065;28;20033;-66
2022/05/05 05:21:37;;;;;;;17.10;11.40;;;;;;;11.00;100.00;98996.00;5011199;28;20480;-67
2022/05/05 05:24:03;;;;;;;17.67;12.40;;;;;;;11.16;100.00;99006.53;5015041;28;20030;-68
2022/05/05 05:26:29;;;;;;;14.40;10.60;;;;;;;11.28;100.00;99003.22;5027126;28;20087;-63
2022/05/05 05:28:54;;;;;;;15.15;11.23;;;;;;;11.19;100.00;99000.69;5033779;28;20036;-62
2022/05/05 05:31:21;;;;;;;18.48;11.13;;;;;;;11.32;100.00;99004.50;5033963;28;20022;-70
2022/05/05 05:33:47;;;;;;;16.08;11.63;;;;;;;11.46;100.00;99008.06;5015085;28;20534;-69
2022/05/05 05:36:13;;;;;;;18.50;12.23;;;;;;;11.37;100.00;99012.81;5025581;28;20049;-65
2022/05/05 05:38:38;;;;;;;17.52;12.63;;;;;;;11.32;100.00;99005.31;5006501;28;20021;-65
2022/05/05 05:41:04;;;;;;;18.50;12.32;;;;;;;11.39;100.00;99000.75;5008579;28;20061;-69
2022/05/05 05:43:29;;;;;;;20.13;12.52;;;;;;;11.47;100.00;98996.19;5014990;28;20459;-73
2022/05/05 05:45:54;;;;;;;17.98;12.88;;;;;;;11.51;100.00;98997.47;5020065;28;20029;-72
2022/05/05 05:48:19;;;;;;;19.73;12.40;;;;;;;11.55;100.00;99009.53;5027295;28;20026;-74
2022/05/05 05:50:45;;;;;;;18.92;12.68;;;;;;;11.55;100.00;98994.16;5009848;28;20030;-74
2022/05/05 05:53:11;;;;;;;17.60;11.73;;;;;;;11.76;100.00;99011.25;5014845;28;20542;-69
2022/05/05 05:55:36;;;;;;;18.05;12.45;;;;;;;11.82;100.00;99013.16;5012356;28;20138;-66
2022/05/05 05:58:02;;;;;;;18.67;12.98;;;;;;;11.80;100.00;99016.06;5026663;28;20471;-66
2022/05/05 06:00:28;;;;;;;18.33;13.25;;;;;;;11.85;100.00;99019.00;5010189;28;20038;-70
2022/05/05 06:05:37;;;;;;;21.63;13.63;;;;;;;11.87;100.00;99002.56;5020243;28;20035;-70
2022/05/05 06:08:03;;;;;;;18.13;12.18;;;;;;;12.06;100.00;99015.28;5024646;28;20391;-68
2022/05/05 06:10:29;;;;;;;17.35;11.50;;;;;;;12.11;100.00;98997.56;5012671;28;20149;-69
2022/05/05 06:12:55;;;;;;;18.23;12.60;;;;;;;12.19;100.00;99005.50;5025969;28;20022;-66
2022/05/05 06:15:22;;;;;;;18.70;12.57;;;;;;;12.40;100.00;99018.84;5011300;28;20052;-65
2022/05/05 06:17:48;;;;;;;20.92;13.77;;;;;;;12.21;100.00;99020.53;5011358;28;20439;-65
2022/05/05 06:20:14;;;;;;;22.38;14.30;;;;;;;12.31;100.00;99036.38;5013796;28;20034;-65
2022/05/05 06:22:39;;;;;;;20.00;13.52;;;;;;;12.20;100.00;99028.84;5013900;28;20387;-64
2022/05/05 06:25:06;;;;;;;17.98;13.20;;;;;;;12.24;100.00;99039.09;5009056;28;20029;-65
2022/05/05 06:27:31;;;;;;;22.15;14.40;;;;;;;12.33;100.00;99037.00;5018634;28;20028;-69
2022/05/05 06:29:57;;;;;;;18.65;12.88;;;;;;;12.42;100.00;99037.66;5011248;28;20030;-69
2022/05/05 06:32:22;;;;;;;18.88;13.50;;;;;;;12.35;100.00;99015.09;5011922;28;20391;-70
2022/05/05 06:34:47;;;;;;;19.48;13.00;;;;;;;12.56;100.00;99036.56;5011189;28;20036;-65
2022/05/05 06:37:13;;;;;;;19.75;13.85;;;;;;;12.63;100.00;99042.00;5009928;28;20033;-64
2022/05/05 06:39:38;;;;;;;18.85;12.27;;;;;;;12.80;100.00;99045.09;5011620;28;20044;-66
2022/05/05 06:42:05;;;;;;;18.02;12.90;;;;;;;12.86;100.00;99047.81;5002065;28;20025;-70
2022/05/05 06:44:30;;;;;;;20.63;13.32;;;;;;;12.94;100.00;99049.44;5009075;28;20030;-69
2022/05/05 06:46:56;;;;;;;19.83;13.38;;;;;;;13.02;100.00;99051.97;5012098;28;20033;-69
2022/05/05 06:49:22;;;;;;;20.67;13.35;;;;;;;12.85;100.00;99045.31;5008909;28;20026;-66
2022/05/05 06:51:49;;;;;;;20.42;13.77;;;;;;;12.93;100.00;99051.31;5006984;28;20030;-66
2022/05/05 06:54:14;;;;;;;21.98;14.57;;;;;;;13.07;100.00;99048.56;5016684;28;20025;-66
2022/05/05 06:56:39;;;;;;;19.25;13.38;;;;;;;13.08;100.00;99061.97;5008316;28;20095;-72
2022/05/05 06:59:04;;;;;;;19.63;13.10;;;;;;;12.99;100.00;99063.22;5005467;28;20031;-67
2022/05/05 07:06:57;;;;;;;17.90;12.48;;;;;;;12.91;100.00;99067.00;5017448;28;20087;-70
2022/05/05 07:12:06;;;;;;;18.65;13.57;;;;;;;12.92;100.00;99076.00;5006742;28;20047;-66
2022/05/05 07:14:33;;;;;;;18.73;13.32;;;;;;;13.03;100.00;99074.50;5006454;28;20476;-66
2022/05/05 07:16:58;;;;;;;18.60;12.95;;;;;;;13.09;100.00;99071.75;4999598;28;20448;-63
2022/05/05 07:19:23;;;;;;;16.98;11.95;;;;;;;13.25;100.00;99058.75;5015067;28;20072;-76
2022/05/05 07:21:49;;;;;;;15.43;12.30;;;;;;;13.55;100.00;99070.81;5027524;28;20160;-72
2022/05/05 07:24:14;;;;;;;20.58;12.95;;;;;;;13.68;98.20;99074.53;5006694;28;20483;-65
2022/05/05 07:26:39;;;;;;;19.45;12.98;;;;;;;13.53;98.49;99072.06;5007469;28;20050;-64
2022/05/05 07:29:05;;;;;;;16.38;12.73;;;;;;;13.50;100.00;99083.38;5007540;28;20442;-64
2022/05/05 07:31:30;;;;;;;16.60;12.65;;;;;;;13.63;100.00;99088.75;5016435;28;20026;-64
2022/05/05 07:33:55;;;;;;;19.25;13.27;;;;;;;13.74;100.00;99084.53;5008286;28;20296;-68
2022/05/05 07:36:20;;;;;;;17.40;13.15;;;;;;;13.81;100.00;99086.16;5011507;28;20056;-69
2022/05/05 07:38:46;;;;;;;16.88;12.38;;;;;;;13.98;97.82;99088.34;5007343;28;20058;-69
2022/05/05 07:41:11;;;;;;;16.15;11.77;;;;;;;14.04;97.12;99090.19;5011344;28;20032;-67
2022/05/05 07:43:36;;;;;;;15.43;12.23;;;;;;;14.17;94.51;99081.13;5014940;28;20070;-66
2022/05/05 07:46:02;;;;;;;17.67;11.65;;;;;;;14.32;94.00;99061.75;5021677;28;20037;-67
2022/05/05 07:48:27;;;;;;;17.73;11.90;;;;;;;14.62;95.49;99079.13;5008935;28;20391;-66
2022/05/05 07:50:52;;;;;;;15.18;12.02;;;;;;;14.89;93.47;99078.88;5008291;28;20395;-66
2022/05/05 07:53:18;;;;;;;15.95;12.15;;;;;;;14.99;94.24;99067.47;5010911;28;20034;-67
2022/05/05 07:55:43;;;;;;;16.35;11.27;;;;;;;15.39;91.63;99070.59;5010896;28;20026;-66
2022/05/05 07:58:08;;;;;;;14.02;9.82;;;;;;;15.79;88.55;99078.28;5010848;28;20038;-63
2022/05/05 08:00:34;;;;;;;14.90;11.18;;;;;;;15.85;86.17;99084.72;5013682;28;20034;-64
2022/05/05 08:02:59;;;;;;;13.73;10.85;;;;;;;15.67;83.68;99093.75;5006823;28;20025;-64
2022/05/05 08:05:25;;;;;;;14.32;10.95;;;;;;;15.45;86.48;99087.91;5009720;28;20029;-66
2022/05/05 08:07:51;;;;;;;12.60;10.63;;;;;;;15.63;83.25;99087.06;5010851;28;20049;-67
2022/05/05 08:10:20;;;;;;;17.33;11.10;;;;;;;15.76;84.67;99092.38;5006153;28;20501;-66
2022/05/05 08:12:46;;;;;;;14.07;10.52;;;;;;;15.69;84.86;99091.63;5004526;28;20049;-67
2022/05/05 08:15:13;;;;;;;16.23;11.45;;;;;;;15.00;87.43;99089.03;5016956;28;20117;-68
2022/05/05 08:17:38;;;;;;;13.60;10.68;;;;;;;15.31;87.99;99103.59;5013150;28;20227;-70
2022/05/05 08:20:05;;;;;;;15.95;11.43;;;;;;;16.03;85.60;99108.41;5008406;28;20116;-64
2022/05/05 08:22:30;;;;;;;13.73;10.52;;;;;;;15.71;83.21;99114.06;5007795;28;20032;-63
2022/05/05 08:30:24;;;;;;;14.27;10.82;;;;;;;16.13;81.76;99100.50;5011323;28;20048;-71
2022/05/05 08:32:49;;;;;;;15.55;10.50;;;;;;;16.28;81.87;99119.19;5008264;28;20026;-66
2022/05/05 08:35:14;;;;;;;14.50;10.30;;;;;;;16.28;81.23;99117.28;5012928;28;20484;-70
2022/05/05 08:37:39;;;;;;;14.45;10.93;;;;;;;16.28;81.24;99119.19;5009177;28;20034;-66
2022/05/05 08:40:06;;;;;;;13.85;10.32;;;;;;;16.41;78.14;99117.06;5010743;28;20034;-65
2022/05/05 08:42:31;;;;;;;13.93;10.88;;;;;;;16.07;77.88;99126.00;5019035;28;20025;-70
2022/05/05 08:44:59;;;;;;;16.92;10.45;;;;;;;16.34;79.98;99126.44;5013206;28;20029;-65
2022/05/05 08:47:26;;;;;;;13.80;11.50;;;;;;;16.38;80.09;99125.75;5007203;28;20400;-67
2022/05/05 08:49:57;;;;;;;15.13;11.13;;;;;;;16.43;77.02;99131.34;5018049;28;20033;-73
2022/05/05 08:52:24;;;;;;;15.75;11.77;;;;;;;16.38;79.63;99106.63;5013186;28;20030;-70
2022/05/05 08:54:50;;;;;;;14.25;10.73;;;;;;;16.94;78.57;99114.56;5011759;28;20034;-69
2022/05/05 08:57:15;;;;;;;15.45;11.25;;;;;;;17.26;77.13;99124.06;5013723;28;20546;-70
2022/05/05 08:59:41;;;;;;;14.80;11.13;;;;;;;17.20;73.64;99096.84;5031880;28;20026;-69
2022/05/05 09:02:07;;;;;;;15.32;10.90;;;;;;;17.43;73.45;99115.97;5011314;28;20025;-69
2022/05/05 09:04:32;;;;;;;15.88;11.68;;;;;;;17.22;73.08;99117.41;5013694;28;20033;-69
2022/05/05 09:06:58;;;;;;;14.95;10.77;;;;;;;17.21;75.14;99093.91;5012536;28;20026;-67
2022/05/05 09:09:33;;;;;;;16.88;12.80;;;;;;;17.23;70.48;99121.81;5009225;28;20109;-66
2022/05/05 09:12:04;;;;;;;16.63;13.35;;;;;;;17.25;70.33;99129.78;5022867;28;20483;-67
2022/05/05 09:14:46;;;;;;;16.35;13.20;;;;;;;17.28;72.41;99132.03;5013708;28;20083;-67
2022/05/05 09:17:22;;;;;;;16.50;12.73;;;;;;;17.08;71.77;99137.84;5013914;28;20034;-68
2022/05/05 09:19:51;;;;;;;16.90;12.15;;;;;;;17.02;71.76;99125.16;5014150;28;20038;-68
2022/05/05 09:22:19;;;;;;;19.02;13.68;;;;;;;16.58;74.51;99140.97;5020334;28;20650;-67
2022/05/05 09:24:49;;;;;;;18.25;12.30;;;;;;;16.64;75.25;99140.88;5012161;28;20037;-68
2022/05/05 09:27:19;;;;;;;20.70;14.95;;;;;;;16.18;75.55;99144.31;5030440;28;20387;-68
2022/05/05 09:29:56;;;;;;;18.15;12.73;;;;;;;16.72;74.73;99144.34;5014314;28;20026;-65
2022/05/05 09:32:29;;;;;;;18.73;14.23;;;;;;;17.16;74.82;99140.25;5009197;28;20168;-65
2022/05/05 09:34:59;;;;;;;24.45;15.50;;;;;;;17.42;72.06;99143.56;5012988;28;20037;-65
2022/05/05 09:37:24;;;;;;;20.25;14.15;;;;;;;17.58;72.39;99147.44;5014922;28;20029;-65
2022/05/05 09:39:55;;;;;;;21.48;14.57;;;;;;;17.48;71.71;99129.75;5012131;28;20034;-65
2022/05/05 09:42:43;;;;;;;21.38;14.10;;;;;;;17.71;70.88;99141.72;5012787;28;20029;-65
2022/05/05 09:45:12;;;;;;;22.20;14.07;;;;;;;17.22;71.88;99144.75;5012507;28;20037;-65
2022/05/05 09:47:38;;;;;;;;;;;;;;;17.41;73.55;99139.16;5008305;28;20018;-65
2022/05/05 09:50:06;;;;;;;19.95;13.82;;;;;;;17.62;71.82;99143.19;5022614;28;19927;-65
2022/05/05 09:58:04;;;;;;;20.58;15.25;;;;;;;17.26;70.29;99154.13;5014307;28;20112;-67
2022/05/05 10:05:53;;;;;;;20.13;15.98;;;;;;;16.85;74.02;99152.34;5006436;28;20594;-63
2022/05/05 10:08:20;;;;;;;;;;;;;;;16.86;72.40;99173.97;5013884;28;20068;-64
2022/05/05 10:10:46;;;;;;;23.17;17.73;;;;;;;16.43;73.79;99166.00;5006726;28;19922;-63
2022/05/05 10:13:12;;;;;;;28.27;18.92;;;;;;;15.69;77.42;99143.47;5012320;28;20021;-63
2022/05/05 10:15:39;;;;;;;28.00;18.98;;;;;;;16.04;75.54;99165.50;5022721;28;20022;-63
2022/05/05 10:18:05;;;;;;;26.42;18.70;;;;;;;16.08;76.89;99172.13;5011064;28;20029;-64
2022/05/05 10:20:32;;;;;;;30.75;19.08;;;;;;;16.06;78.54;99163.38;5006889;28;20037;-64
2022/05/05 10:23:09;;;;;;;26.52;19.17;;;;;;;16.19;77.36;99174.13;5010692;28;20059;-69
2022/05/05 10:25:37;;;;;;;21.95;17.90;;;;;;;16.26;77.87;99167.72;5020768;28;20040;-64
2022/05/05 10:28:03;;;;;;;25.13;19.17;;;;;;;16.30;76.32;99169.75;5005505;28;20037;-63
2022/05/05 10:30:37;;;;;;;23.65;17.77;;;;;;;16.14;77.63;99165.78;5002660;28;20036;-64
2022/05/05 10:33:08;;;;;;;27.52;20.02;;;;;;;16.00;78.52;99165.09;5005063;28;20034;-64
2022/05/05 10:35:40;;;;;;;24.60;19.35;;;;;;;16.06;79.17;99162.53;5004218;28;20029;-65
2022/05/05 10:38:42;;;;;;;27.83;20.42;;;;;;;16.03;79.91;99162.97;5007189;28;20529;-64
2022/05/05 10:41:39;;;;;;;28.20;19.60;;;;;;;16.12;81.41;99164.34;5001016;28;20045;-64
2022/05/05 10:44:17;;;;;;;28.67;21.17;;;;;;;16.04;77.82;99156.47;5020650;28;20076;-64
2022/05/05 10:47:05;;;;;;;32.33;19.48;;;;;;;16.23;79.26;99157.25;5005111;28;20061;-65
2022/05/05 10:49:34;;;;;;;26.52;20.20;;;;;;;16.58;78.55;99160.09;5004489;28;20021;-66
2022/05/05 10:52:09;;;;;;;25.33;19.30;;;;;;;16.95;74.15;99149.03;5002917;28;20030;-65
2022/05/05 10:54:36;;;;;;;25.85;19.70;;;;;;;16.98;73.52;99145.84;5004194;28;20037;-66
2022/05/05 10:57:26;;;;;;;27.67;19.70;;;;;;;17.18;74.08;99153.66;5004576;28;20025;-66
2022/05/05 11:00:13;;;;;;;24.00;18.52;;;;;;;17.36;72.05;99153.53;5002647;28;20156;-66
2022/05/05 11:02:58;;;;;;;25.80;19.40;;;;;;;17.36;72.45;99155.44;5005354;28;20085;-66
2022/05/05 11:05:27;;;;;;;27.50;18.48;;;;;;;17.42;71.01;99160.81;5003269;28;20088;-65
2022/05/05 11:07:54;;;;;;;27.92;20.92;;;;;;;17.16;71.14;99133.94;5011951;28;20036;-67
2022/05/05 11:10:40;;;;;;;31.40;19.60;;;;;;;17.31;69.86;99164.38;5017268;28;20622;-65
2022/05/05 11:13:07;;;;;;;27.73;19.77;;;;;;;17.36;70.46;99163.66;5004296;28;20037;-66
2022/05/05 11:21:33;;;;;;;27.95;19.98;;;;;;;17.87;66.98;99157.44;5001747;28;20139;-67
2022/05/05 11:24:00;;;;;;;26.27;18.90;;;;;;;18.40;67.13;99139.00;5009612;28;20030;-66
2022/05/05 11:26:26;;;;;;;25.73;18.13;;;;;;;18.81;64.17;99150.69;5005029;28;20107;-69
2022/05/05 11:28:53;;;;;;;23.40;17.60;;;;;;;18.97;63.02;99157.28;5007904;28;20158;-70
2022/05/05 11:31:22;;;;;;;20.65;16.63;;;;;;;19.21;61.16;99155.19;5004005;28;20026;-76
2022/05/05 11:34:00;;;;;;;27.27;19.70;;;;;;;18.55;65.01;99136.53;5003880;28;20053;-70
2022/05/05 11:36:27;;;;;;;27.50;19.48;;;;;;;17.81;68.35;99152.91;5009256;28;20032;-70
2022/05/05 11:38:53;;;;;;;22.08;17.67;;;;;;;18.05;69.27;99147.34;5004494;28;20030;-70
2022/05/05 11:41:19;;;;;;;24.88;18.55;;;;;;;17.72;71.27;99146.94;5001836;28;20388;-69
2022/05/05 11:46:31;;;;;;;30.23;18.58;;;;;;;17.63;71.95;99151.16;5010688;28;20039;-73
2022/05/05 11:48:57;;;;;;;27.77;17.77;;;;;;;17.99;70.39;99154.66;5025123;28;20026;-72
2022/05/05 11:51:28;;;;;;;23.48;17.30;;;;;;;18.64;68.52;99133.38;5008296;28;20036;-73
2022/05/05 11:53:59;;;;;;;27.83;19.05;;;;;;;18.65;67.93;99124.91;5004405;28;20109;-65
2022/05/05 11:56:26;;;;;;;27.50;20.08;;;;;;;19.07;64.09;99130.00;5012107;28;20022;-71
2022/05/05 12:01:41;;;;;;;27.77;20.55;;;;;;;18.59;65.04;99123.16;5006992;28;20125;-72
2022/05/05 12:04:12;;;;;;;29.23;20.92;;;;;;;17.67;69.13;99144.09;5008971;28;20034;-70
2022/05/05 12:06:39;;;;;;;27.55;19.30;;;;;;;17.78;69.14;99130.63;5006083;28;20029;-69
2022/05/05 12:09:07;;;;;;;32.08;20.58;;;;;;;18.34;66.92;99140.00;5012138;28;20017;-69